Flight Number: AVA6101 Duration: 2:00
Departure: Adis Abbeba Bole Intl (HAAB) at 11:45 Distance: 784 Nm
Arrival: Mombasa Moi Intl Airport (HKMO) at 13:45 Equipment: B737

Weather Information
Addis Ababa, Ethiopia (HAAB) 08-59N 038-48E 2324M Jun 19, 2024 - 09:00 AM EDT / 2024.06.19 1300 UTC
Wind: from the NW (320 degrees) at 5 MPH (4 KT):0
Visibility: greater than 7 mile(s):0
Sky conditions: partly cloudy Temperature: 75 F (24 C) Dew Point: 51 F (11 C) Relative Humidity: 43% Pressure (altimeter): 30.24 in. Hg (1024 hPa)
ob: HAAB 191300Z 32004KT 9999 SCT025 24/11 Q1024 cycle: 13
Sunrise: 03:09 Sunset: 15:43 (UTC)

Mombasa, Kenya (HKMO) 04-02S 039-37E 55M Jun 19, 2024 - 09:00 AM EDT / 2024.06.19 1300 UTC
Wind: from the SSW (200 degrees) at 12 MPH (10 KT):0
Visibility: 3 mile(s):0
Sky conditions: overcast Weather: drizzle Temperature: 75 F (24 C) Dew Point: 73 F (23 C) Relative Humidity: 94% Pressure (altimeter): 29.94 in. Hg (1014 hPa)
ob: HKMO 191300Z 20010KT 6000 DZ BKN005 OVC013 24/23 Q1014 NOSIG cycle: 13
Sunrise: 03:29 Sunset: 15:17 (UTC)

TAF:2024/06/19 12:54 TAF TAF HKMO 191100Z 1912/2018 18015KT 9999 RA BKN020 BKN080 BECMG 2000/2003 23005KT BECMG 2006/2009 18010KT

Previous Pireps for this route
Date Flightnr Aircraft Flight time Fuel used Landing rate On time
2020-05-14AVA6101B73702.0511541-128Yes
(pireps marked green are flown by you)

Route map